createdAt,value
2022-09-12T00:01:22.084Z,9.34
2022-09-12T00:03:55.806Z,9.36
2022-09-12T00:06:29.627Z,9.44
2022-09-12T00:09:00.707Z,9.27
2022-09-12T00:11:29.288Z,8.80
2022-09-12T00:13:59.938Z,8.71
2022-09-12T00:16:29.667Z,9.42
2022-09-12T00:18:58.344Z,8.75
2022-09-12T00:21:26.206Z,8.51
2022-09-12T00:23:54.247Z,9.48
2022-09-12T00:26:22.707Z,9.26
2022-09-12T00:28:51.013Z,9.13
2022-09-12T00:31:21.782Z,8.54
2022-09-12T00:33:50.205Z,8.30
2022-09-12T00:36:20.629Z,8.35
2022-09-12T00:38:49.232Z,8.34
2022-09-12T00:41:23.693Z,8.28
2022-09-12T00:43:58.700Z,8.22
2022-09-12T00:46:38.321Z,8.13
2022-09-12T00:49:28.055Z,8.11
2022-09-12T00:52:03.673Z,8.07
2022-09-12T00:54:36.626Z,8.05
2022-09-12T00:57:08.548Z,8.02
2022-09-12T01:00:10.292Z,8.09
2022-09-12T01:02:38.688Z,8.05
2022-09-12T01:05:07.931Z,8.03
2022-09-12T01:07:40.088Z,8.03
2022-09-12T01:10:10.195Z,8.04
2022-09-12T01:12:41.030Z,7.94
2022-09-12T01:15:10.271Z,7.94
2022-09-12T01:18:00.632Z,7.89
2022-09-12T01:21:01.389Z,7.86
2022-09-12T01:23:55.827Z,7.81
2022-09-12T01:26:48.584Z,7.81
2022-09-12T01:29:56.877Z,7.82
2022-09-12T01:32:35.931Z,7.81
2022-09-12T01:35:23.196Z,7.78
2022-09-12T01:38:36.589Z,7.85
2022-09-12T01:41:41.735Z,7.83
2022-09-12T01:44:13.247Z,7.79
2022-09-12T01:47:12.525Z,7.94
2022-09-12T01:50:03.540Z,8.00
2022-09-12T01:52:51.511Z,8.35
2022-09-12T01:55:22.965Z,8.38
2022-09-12T01:58:03.529Z,8.51
2022-09-12T02:00:36.584Z,8.39
2022-09-12T02:03:20.624Z,8.54
2022-09-12T02:05:57.709Z,8.42
2022-09-12T02:08:38.470Z,8.46
2022-09-12T02:11:12.203Z,8.37
2022-09-12T02:13:48.124Z,8.44
2022-09-12T02:16:26.550Z,8.50
2022-09-12T02:19:00.945Z,8.43
2022-09-12T02:21:33.244Z,8.52
2022-09-12T02:24:05.702Z,8.58
2022-09-12T02:26:38.556Z,8.61
2022-09-12T02:29:07.695Z,8.53
2022-09-12T02:31:46.076Z,8.32
2022-09-12T02:34:39.549Z,8.34
2022-09-12T02:37:27.485Z,8.34
2022-09-12T02:39:57.480Z,8.26
2022-09-12T02:42:25.916Z,8.35
2022-09-12T02:44:56.827Z,8.24
2022-09-12T02:47:31.719Z,8.24
2022-09-12T02:50:00.487Z,8.09
2022-09-12T02:52:29.531Z,8.35
2022-09-12T02:54:58.951Z,8.30
2022-09-12T02:57:26.749Z,8.24
2022-09-12T02:59:59.254Z,8.12
2022-09-12T03:02:44.333Z,8.03
2022-09-12T03:05:21.222Z,8.04
2022-09-12T03:08:04.171Z,8.19
2022-09-12T03:10:57.314Z,8.14
2022-09-12T03:13:53.123Z,8.00
2022-09-12T03:17:10.432Z,8.09
2022-09-12T03:19:38.088Z,7.94
2022-09-12T03:22:14.759Z,8.04
2022-09-12T03:24:52.725Z,8.14
2022-09-12T03:27:38.819Z,8.11
2022-09-12T03:30:07.556Z,8.04
2022-09-12T03:32:49.734Z,8.04
2022-09-12T03:35:22.857Z,8.06
2022-09-12T03:37:53.402Z,8.16
2022-09-12T03:42:49.159Z,8.15
2022-09-12T03:45:17.299Z,8.15
2022-09-12T03:47:44.956Z,8.14
2022-09-12T03:50:12.690Z,8.21
2022-09-12T03:52:40.816Z,8.20
2022-09-12T03:55:08.867Z,8.12
2022-09-12T03:57:36.734Z,8.02
2022-09-12T04:00:08.405Z,8.00
2022-09-12T04:02:40.306Z,8.03
2022-09-12T04:05:08.575Z,7.99
2022-09-12T04:07:36.349Z,7.95
2022-09-12T04:10:04.919Z,8.00
2022-09-12T04:12:33.089Z,8.15
2022-09-12T04:15:00.755Z,8.23
2022-09-12T04:17:28.483Z,8.19
2022-09-12T04:19:56.599Z,8.26
2022-09-12T04:22:24.501Z,8.13
2022-09-12T04:24:52.322Z,8.24
2022-09-12T04:27:20.390Z,8.32
2022-09-12T04:29:48.410Z,8.14
2022-09-12T04:32:16.160Z,8.35
2022-09-12T04:34:44.333Z,8.33
2022-09-12T04:37:12.115Z,8.34
2022-09-12T04:39:39.953Z,8.42
2022-09-12T04:42:08.260Z,8.30
2022-09-12T04:44:36.059Z,8.30
2022-09-12T04:47:03.892Z,8.52
2022-09-12T04:49:32.144Z,8.32
2022-09-12T04:52:00.100Z,8.12
2022-09-12T04:54:27.958Z,8.22
2022-09-12T04:56:59.901Z,8.26
2022-09-12T04:59:28.073Z,8.38
2022-09-12T05:01:56.150Z,8.27
2022-09-12T05:04:23.973Z,8.32
2022-09-12T05:06:51.659Z,8.22
2022-09-12T05:09:19.813Z,8.33
2022-09-12T05:12:03.859Z,8.29
2022-09-12T05:14:33.828Z,8.61
2022-09-12T05:17:02.193Z,8.69
2022-09-12T05:19:31.479Z,8.80
2022-09-12T05:21:59.843Z,8.65
2022-09-12T05:24:27.914Z,8.76
2022-09-12T05:26:55.697Z,8.84
2022-09-12T05:29:25.461Z,9.08
2022-09-12T05:31:56.214Z,9.12
2022-09-12T05:34:24.344Z,9.12
2022-09-12T05:36:52.133Z,8.97
2022-09-12T05:39:20.088Z,9.15
2022-09-12T05:41:48.340Z,9.13
2022-09-12T05:44:16.197Z,9.29
2022-09-12T05:46:45.834Z,9.31
2022-09-12T05:49:14.897Z,9.47
2022-09-12T05:51:45.497Z,9.45
2022-09-12T05:54:18.215Z,9.37
2022-09-12T05:56:46.860Z,9.61
2022-09-12T05:59:24.374Z,9.40
2022-09-12T06:04:41.243Z,9.50
2022-09-12T06:07:09.621Z,9.49
2022-09-12T06:09:37.543Z,9.67
2022-09-12T06:12:05.867Z,9.56
2022-09-12T06:14:36.558Z,9.66
2022-09-12T06:17:04.741Z,9.69
2022-09-12T06:19:32.903Z,9.67
2022-09-12T06:22:00.573Z,9.67
2022-09-12T06:24:28.354Z,9.83
2022-09-12T06:26:56.478Z,10.00
2022-09-12T06:29:24.379Z,10.06
2022-09-12T06:31:52.065Z,10.06
2022-09-12T06:34:20.296Z,10.21
2022-09-12T06:36:49.367Z,10.30
2022-09-12T06:39:19.686Z,10.37
2022-09-12T06:41:51.684Z,10.38
2022-09-12T06:44:30.150Z,10.54
2022-09-12T06:46:59.063Z,10.53
2022-09-12T06:49:27.004Z,10.68
2022-09-12T06:51:54.747Z,10.73
2022-09-12T06:54:23.831Z,10.69
2022-09-12T06:56:51.539Z,10.87
2022-09-12T06:59:19.255Z,10.86
2022-09-12T07:01:47.630Z,10.81
2022-09-12T07:04:15.440Z,10.78
2022-09-12T07:06:44.900Z,10.87
2022-09-12T07:09:17.304Z,10.87
2022-09-12T07:11:46.607Z,10.98
2022-09-12T07:14:15.751Z,10.85
2022-09-12T07:16:44.273Z,10.83
2022-09-12T07:19:12.471Z,10.95
2022-09-12T07:21:40.945Z,10.78
2022-09-12T07:24:12.083Z,11.01
2022-09-12T07:26:40.929Z,10.68
2022-09-12T07:32:02.811Z,10.66
2022-09-12T07:34:30.568Z,10.46
2022-09-12T07:36:58.936Z,10.51
2022-09-12T07:39:27.010Z,10.79
2022-09-12T07:41:55.200Z,10.64
2022-09-12T07:44:26.211Z,10.78
2022-09-12T07:46:54.291Z,10.76
2022-09-12T07:49:22.016Z,11.11
2022-09-12T07:51:49.782Z,11.03
2022-09-12T07:54:18.193Z,10.69
2022-09-12T07:56:46.229Z,10.92
2022-09-12T07:59:25.354Z,10.91
2022-09-12T08:02:04.234Z,10.88
2022-09-12T08:04:32.339Z,11.05
2022-09-12T08:07:00.121Z,11.43
2022-09-12T08:09:27.852Z,11.61
2022-09-12T08:11:55.940Z,11.90
2022-09-12T08:14:23.790Z,12.10
2022-09-12T08:16:51.529Z,12.17
2022-09-12T08:19:20.069Z,12.30
2022-09-12T08:21:47.804Z,12.61
2022-09-12T08:24:16.140Z,12.81
2022-09-12T08:26:44.510Z,12.90
2022-09-12T08:29:12.531Z,13.06
2022-09-12T08:31:41.648Z,13.34
2022-09-12T08:34:10.298Z,13.41
2022-09-12T08:36:38.127Z,13.56
2022-09-12T08:39:07.628Z,13.30
2022-09-12T08:41:55.872Z,13.48
2022-09-12T08:44:37.603Z,13.32
2022-09-12T08:47:08.659Z,13.21
2022-09-12T08:50:09.092Z,13.11
2022-09-12T08:53:03.623Z,13.26
2022-09-12T08:55:46.575Z,13.01
2022-09-12T08:58:14.458Z,13.41
2022-09-12T09:00:47.218Z,13.23
2022-09-12T09:03:41.036Z,13.39
2022-09-12T09:06:18.559Z,13.45
2022-09-12T09:08:51.406Z,13.79
2022-09-12T09:11:48.197Z,13.81
2022-09-12T09:14:49.465Z,13.62
2022-09-12T09:17:30.605Z,13.80
2022-09-12T09:20:24.994Z,14.02
2022-09-12T09:23:00.400Z,14.21
2022-09-12T09:26:10.863Z,14.20
2022-09-12T09:28:55.373Z,14.12
2022-09-12T09:31:26.026Z,14.60
2022-09-12T09:33:55.719Z,14.37
2022-09-12T09:36:29.868Z,14.24
2022-09-12T09:39:06.611Z,14.54
2022-09-12T09:42:08.225Z,14.57
2022-09-12T09:44:36.854Z,14.73
2022-09-12T09:47:05.627Z,14.75
2022-09-12T09:49:36.242Z,14.74
2022-09-12T09:52:08.451Z,14.79
2022-09-12T09:54:44.735Z,14.99
2022-09-12T09:57:46.924Z,15.06
2022-09-12T10:00:36.138Z,15.07
2022-09-12T10:03:13.521Z,15.12
2022-09-12T10:05:49.232Z,15.25
2022-09-12T10:08:35.735Z,15.19
2022-09-12T10:11:17.940Z,15.37
2022-09-12T10:13:53.134Z,15.20
2022-09-12T10:16:28.093Z,15.54
2022-09-12T10:18:58.746Z,15.29
2022-09-12T10:21:32.601Z,15.30
2022-09-12T10:24:14.534Z,14.93
2022-09-12T10:26:44.175Z,14.69
2022-09-12T10:29:23.196Z,14.87
2022-09-12T10:31:55.860Z,14.82
2022-09-12T10:34:39.651Z,14.78
2022-09-12T10:37:10.422Z,14.72
2022-09-12T10:39:39.311Z,14.75
2022-09-12T10:42:07.611Z,14.77
2022-09-12T10:44:35.841Z,14.86
2022-09-12T10:47:24.586Z,14.91
2022-09-12T10:49:52.351Z,14.70
2022-09-12T10:52:27.645Z,14.66
2022-09-12T10:54:55.414Z,14.33
2022-09-12T10:57:54.247Z,14.17
2022-09-12T11:00:28.098Z,14.32
2022-09-12T11:03:16.483Z,14.25
2022-09-12T11:06:00.831Z,13.83
2022-09-12T11:08:41.547Z,14.29
2022-09-12T11:11:18.824Z,14.44
2022-09-12T11:14:19.564Z,14.06
2022-09-12T11:17:09.711Z,14.48
2022-09-12T11:20:04.503Z,14.50
2022-09-12T11:22:44.551Z,14.02
2022-09-12T11:25:46.042Z,14.39
2022-09-12T11:28:26.254Z,14.45
2022-09-12T11:31:27.917Z,14.48
2022-09-12T11:33:57.870Z,14.47
2022-09-12T11:36:55.023Z,14.97
2022-09-12T11:39:27.875Z,14.71
2022-09-12T11:42:03.135Z,14.60
2022-09-12T11:44:44.544Z,14.94
2022-09-12T11:47:14.252Z,15.05
2022-09-12T11:49:47.465Z,15.33
2022-09-12T11:52:20.224Z,15.50
2022-09-12T11:54:54.221Z,15.22
2022-09-12T11:57:36.614Z,15.59
2022-09-12T12:00:15.203Z,15.45
2022-09-12T12:02:58.265Z,15.83
2022-09-12T12:05:34.702Z,15.59
2022-09-12T12:08:09.760Z,15.67
2022-09-12T12:10:57.656Z,15.56
2022-09-12T12:13:30.998Z,16.12
2022-09-12T12:16:08.829Z,15.51
2022-09-12T12:18:39.290Z,15.65
2022-09-12T12:21:28.762Z,16.05
2022-09-12T12:24:11.003Z,15.87
2022-09-12T12:26:41.723Z,16.12
2022-09-12T12:29:11.706Z,16.32
2022-09-12T12:32:02.273Z,16.18
2022-09-12T12:34:37.616Z,15.48
2022-09-12T12:37:20.749Z,15.66
2022-09-12T12:40:01.559Z,15.99
2022-09-12T12:42:33.886Z,15.58
2022-09-12T12:45:27.320Z,15.38
2022-09-12T12:48:03.122Z,15.12
2022-09-12T12:50:33.220Z,15.21
2022-09-12T12:53:07.223Z,15.02
2022-09-12T12:55:44.716Z,14.75
2022-09-12T12:58:37.774Z,15.57
2022-09-12T13:01:11.454Z,15.79
2022-09-12T13:03:44.254Z,15.44
2022-09-12T13:06:38.796Z,15.67
2022-09-12T13:12:59.534Z,15.76
2022-09-12T13:15:36.634Z,15.89
2022-09-12T13:18:07.931Z,15.51
2022-09-12T13:20:45.701Z,15.70
2022-09-12T13:23:31.921Z,15.51
2022-09-12T13:26:01.131Z,15.70
2022-09-12T13:28:31.085Z,15.07
2022-09-12T13:31:01.349Z,15.31
2022-09-12T13:33:36.267Z,15.09
2022-09-12T13:36:14.069Z,14.90
2022-09-12T13:38:48.241Z,15.05
2022-09-12T13:41:53.624Z,15.87
2022-09-12T13:44:23.424Z,16.06
2022-09-12T13:46:52.267Z,16.07
2022-09-12T13:49:41.135Z,16.28
2022-09-12T13:52:19.055Z,16.02
2022-09-12T13:54:50.231Z,16.33
2022-09-12T13:57:43.793Z,15.91
2022-09-12T14:00:19.681Z,16.09
2022-09-12T14:02:48.687Z,15.79
2022-09-12T14:05:24.503Z,16.34
2022-09-12T14:07:57.525Z,16.87
2022-09-12T14:10:45.865Z,16.62
2022-09-12T14:13:27.233Z,15.96
2022-09-12T14:15:57.474Z,15.23
2022-09-12T14:18:28.469Z,14.73
2022-09-12T14:21:01.224Z,14.80
2022-09-12T14:23:33.844Z,14.75
2022-09-12T14:26:05.564Z,14.35
2022-09-12T14:28:34.631Z,14.39
2022-09-12T14:31:06.973Z,14.00
2022-09-12T14:33:50.070Z,14.00
2022-09-12T14:36:41.212Z,13.75
2022-09-12T14:39:22.215Z,13.68
2022-09-12T14:41:51.057Z,13.19
2022-09-12T14:44:27.404Z,13.40
2022-09-12T14:46:55.297Z,13.23
2022-09-12T14:49:31.549Z,13.45
2022-09-12T14:52:05.535Z,12.76
2022-09-12T14:54:37.610Z,13.18
2022-09-12T14:57:39.140Z,13.25
2022-09-12T15:00:13.111Z,13.05
2022-09-12T15:02:43.030Z,13.08
2022-09-12T15:05:11.423Z,13.31
2022-09-12T15:07:42.582Z,12.88
2022-09-12T15:10:34.985Z,12.55
2022-09-12T15:13:09.392Z,12.47
2022-09-12T15:15:38.744Z,12.41
2022-09-12T15:18:07.237Z,12.22
2022-09-12T15:20:39.986Z,12.61
2022-09-12T15:23:11.245Z,12.40
2022-09-12T15:25:38.971Z,12.22
2022-09-12T15:28:16.502Z,12.20
2022-09-12T15:30:45.215Z,12.15
2022-09-12T15:33:13.037Z,12.12
2022-09-12T15:35:40.808Z,12.30
2022-09-12T15:38:09.078Z,11.65
2022-09-12T15:40:36.946Z,12.09
2022-09-12T15:43:05.345Z,11.86
2022-09-12T15:45:34.952Z,11.55
2022-09-12T15:48:03.693Z,11.59
2022-09-12T15:50:31.946Z,11.35
2022-09-12T15:53:00.105Z,11.46
2022-09-12T15:55:32.613Z,11.17
2022-09-12T15:58:04.914Z,11.12
2022-09-12T16:00:34.847Z,11.22
2022-09-12T16:03:04.249Z,11.07
2022-09-12T16:05:32.134Z,10.76
2022-09-12T16:07:59.933Z,11.28
2022-09-12T16:10:31.579Z,10.74
2022-09-12T16:13:02.090Z,10.69
2022-09-12T16:15:30.238Z,11.02
2022-09-12T16:17:57.990Z,11.03
2022-09-12T16:20:25.724Z,11.02
2022-09-12T16:22:53.827Z,10.74
2022-09-12T16:25:21.564Z,11.28
2022-09-12T16:27:49.660Z,10.83
2022-09-12T16:30:17.795Z,10.96
2022-09-12T16:32:45.774Z,10.96
2022-09-12T16:35:13.534Z,11.04
2022-09-12T16:37:41.723Z,11.09
2022-09-12T16:40:10.255Z,11.24
2022-09-12T16:42:43.097Z,11.09
2022-09-12T16:45:12.445Z,11.16
2022-09-12T16:47:40.298Z,10.48
2022-09-12T16:50:08.712Z,10.31
2022-09-12T16:52:37.253Z,10.56
2022-09-12T16:55:05.566Z,10.42
2022-09-12T16:57:33.605Z,10.54
2022-09-12T17:00:01.889Z,10.47
2022-09-12T17:02:31.338Z,10.24
2022-09-12T17:04:59.154Z,10.53
2022-09-12T17:07:27.278Z,10.58
2022-09-12T17:09:55.027Z,10.77
2022-09-12T17:12:24.255Z,10.75
2022-09-12T17:14:52.390Z,10.88
2022-09-12T17:17:20.249Z,10.72
2022-09-12T17:19:48.157Z,10.92
2022-09-12T17:22:16.438Z,10.70
2022-09-12T17:24:44.119Z,10.94
2022-09-12T17:27:12.313Z,10.85
2022-09-12T17:29:41.837Z,10.66
2022-09-12T17:32:09.648Z,10.43
2022-09-12T17:34:37.390Z,10.58
2022-09-12T17:37:05.574Z,10.34
2022-09-12T17:39:33.321Z,10.47
2022-09-12T17:42:01.757Z,10.53
2022-09-12T17:44:30.538Z,10.92
2022-09-12T17:46:58.339Z,10.74
2022-09-12T17:49:26.332Z,10.63
2022-09-12T17:51:56.444Z,10.62
2022-09-12T17:54:24.805Z,10.55
2022-09-12T17:56:52.845Z,10.83
2022-09-12T17:59:23.292Z,10.69
2022-09-12T18:02:10.148Z,10.63
2022-09-12T18:04:39.113Z,10.67
2022-09-12T18:07:07.495Z,10.70
2022-09-12T18:09:36.689Z,10.74
2022-09-12T18:12:06.140Z,10.90
2022-09-12T18:14:34.525Z,10.94
2022-09-12T18:17:02.484Z,10.90
2022-09-12T18:19:30.929Z,10.96
2022-09-12T18:21:58.767Z,11.06
2022-09-12T18:24:26.894Z,11.03
2022-09-12T18:26:58.635Z,10.94
2022-09-12T18:29:28.234Z,10.98
2022-09-12T18:31:56.888Z,10.85
2022-09-12T18:34:24.672Z,10.87
2022-09-12T18:36:55.202Z,10.77
2022-09-12T18:39:27.457Z,10.67
2022-09-12T18:41:55.608Z,10.57
2022-09-12T18:44:23.777Z,10.90
2022-09-12T18:46:51.684Z,10.82
2022-09-12T18:49:19.754Z,10.81
2022-09-12T18:51:47.960Z,10.78
2022-09-12T18:54:15.854Z,10.84
2022-09-12T18:56:45.725Z,10.71
2022-09-12T18:59:15.188Z,10.66
2022-09-12T19:01:43.600Z,10.67
2022-09-12T19:04:13.706Z,10.90
2022-09-12T19:06:48.173Z,10.80
2022-09-12T19:09:19.054Z,10.65
2022-09-12T19:11:51.397Z,10.39
2022-09-12T19:14:23.132Z,10.43
2022-09-12T19:16:53.453Z,10.40
2022-09-12T19:19:21.819Z,10.53
2022-09-12T19:21:49.667Z,10.66
2022-09-12T19:24:17.882Z,10.77
2022-09-12T19:26:45.745Z,10.42
2022-09-12T19:29:15.072Z,10.21
2022-09-12T19:31:44.244Z,10.03
2022-09-12T19:34:13.637Z,9.84
2022-09-12T19:36:45.330Z,9.76
2022-09-12T19:39:14.650Z,10.00
2022-09-12T19:41:43.245Z,10.22
2022-09-12T19:44:11.830Z,9.97
2022-09-12T19:46:42.481Z,10.04
2022-09-12T19:49:12.093Z,10.16
2022-09-12T19:51:40.486Z,10.34
2022-09-12T19:54:08.366Z,10.16
2022-09-12T19:56:36.220Z,9.90
2022-09-12T19:59:04.573Z,10.00
2022-09-12T20:01:32.830Z,10.02
2022-09-12T20:04:00.972Z,10.00
2022-09-12T20:06:28.928Z,9.76
2022-09-12T20:09:00.208Z,9.77
2022-09-12T20:11:28.352Z,9.61
2022-09-12T20:13:58.246Z,9.65
2022-09-12T20:16:29.791Z,9.41
2022-09-12T20:19:00.775Z,9.88
2022-09-12T20:21:32.074Z,9.55
2022-09-12T20:24:05.551Z,9.43
2022-09-12T20:26:33.699Z,9.60
2022-09-12T20:29:02.367Z,9.40
2022-09-12T20:31:30.687Z,9.47
2022-09-12T20:33:58.963Z,9.12
2022-09-12T20:36:27.411Z,9.40
2022-09-12T20:38:58.125Z,9.36
2022-09-12T20:41:27.907Z,9.17
2022-09-12T20:43:57.141Z,8.98
2022-09-12T20:46:26.796Z,9.22
2022-09-12T20:48:54.990Z,9.08
2022-09-12T20:51:25.840Z,9.13
2022-09-12T20:53:54.890Z,8.95
2022-09-12T20:56:24.759Z,8.77
2022-09-12T20:58:52.530Z,8.85
2022-09-12T21:01:21.296Z,8.75
2022-09-12T21:03:49.762Z,8.50
2022-09-12T21:06:18.758Z,8.43
2022-09-12T21:08:48.478Z,8.36
2022-09-12T21:11:17.343Z,8.43
2022-09-12T21:13:45.569Z,8.23
2022-09-12T21:16:16.039Z,8.50
2022-09-12T21:18:44.460Z,8.46
2022-09-12T21:21:14.405Z,8.39
2022-09-12T21:23:44.446Z,8.52
2022-09-12T21:26:12.604Z,8.35
2022-09-12T21:28:40.424Z,8.19
2022-09-12T21:31:08.952Z,8.24
2022-09-12T21:33:40.171Z,8.31
2022-09-12T21:36:08.529Z,8.36
2022-09-12T21:38:36.256Z,8.43
2022-09-12T21:41:14.064Z,8.43
2022-09-12T21:43:42.812Z,8.46
2022-09-12T21:46:12.044Z,8.53
2022-09-12T21:48:39.994Z,8.56
2022-09-12T21:51:07.860Z,8.66
2022-09-12T21:53:37.631Z,8.63
2022-09-12T21:56:07.753Z,8.60
2022-09-12T21:58:36.784Z,8.58
2022-09-12T22:01:06.166Z,8.89
2022-09-12T22:03:34.447Z,8.63
2022-09-12T22:06:05.120Z,8.74
2022-09-12T22:08:34.681Z,8.84
2022-09-12T22:11:09.828Z,8.77
2022-09-12T22:13:43.628Z,8.98
2022-09-12T22:16:12.422Z,8.87
2022-09-12T22:18:40.280Z,8.98
2022-09-12T22:21:16.613Z,8.73
2022-09-12T22:24:03.663Z,8.74
2022-09-12T22:26:36.767Z,8.86
2022-09-12T22:29:04.841Z,8.82
2022-09-12T22:31:33.673Z,8.81
2022-09-12T22:34:01.544Z,8.85
2022-09-12T22:36:31.376Z,8.75
2022-09-12T22:39:00.372Z,8.68
2022-09-12T22:41:28.728Z,8.64
2022-09-12T22:43:57.429Z,8.73
2022-09-12T22:46:25.770Z,8.87
2022-09-12T22:48:55.866Z,8.88
2022-09-12T22:51:24.431Z,8.82
2022-09-12T22:53:52.398Z,8.88
2022-09-12T22:56:20.114Z,8.84
2022-09-12T22:58:48.410Z,8.87
2022-09-12T23:01:16.139Z,8.98
2022-09-12T23:03:44.720Z,8.86
2022-09-12T23:06:12.892Z,8.81
2022-09-12T23:08:40.844Z,8.93
2022-09-12T23:11:11.042Z,8.59
2022-09-12T23:13:41.550Z,8.63
2022-09-12T23:16:21.799Z,8.65
2022-09-12T23:18:50.098Z,8.84
2022-09-12T23:21:20.354Z,8.61
2022-09-12T23:23:48.684Z,8.52
2022-09-12T23:26:21.995Z,8.49
2022-09-12T23:28:53.137Z,8.59
2022-09-12T23:31:23.606Z,8.66
2022-09-12T23:33:54.662Z,8.53
2022-09-12T23:36:24.047Z,8.61
2022-09-12T23:38:54.890Z,8.53
2022-09-12T23:41:23.709Z,8.26
2022-09-12T23:43:52.058Z,8.31
2022-09-12T23:46:20.842Z,8.45
2022-09-12T23:48:49.431Z,8.34
2022-09-12T23:51:20.336Z,8.36
2022-09-12T23:53:51.418Z,8.37
2022-09-12T23:56:19.541Z,8.29
2022-09-12T23:58:47.361Z,8.21
